地図

経路データ

SID SEASON NUMBER BASIN SUBBASIN NAME ISO_TIME NATURE LAT LON WMO_WIND WMO_PRES WMO_AGENCY TRACK_TYPE DIST2LAND LANDFALL IFLAG USA_AGENCY USA_ATCF_ID USA_LAT USA_LON USA_RECORD USA_STATUS USA_WIND USA_PRES USA_SSHS USA_R34_NE USA_R34_SE USA_R34_SW USA_R34_NW USA_R50_NE USA_R50_SE USA_R50_SW USA_R50_NW USA_R64_NE USA_R64_SE USA_R64_SW USA_R64_NW USA_POCI USA_ROCI USA_RMW USA_EYE TOKYO_LAT TOKYO_LON TOKYO_GRADE TOKYO_WIND TOKYO_PRES TOKYO_R50_DIR TOKYO_R50_LONG TOKYO_R50_SHORT TOKYO_R30_DIR TOKYO_R30_LONG TOKYO_R30_SHORT TOKYO_LAND CMA_LAT CMA_LON CMA_CAT CMA_WIND CMA_PRES HKO_LAT HKO_LON HKO_CAT HKO_WIND HKO_PRES NEWDELHI_LAT NEWDELHI_LON NEWDELHI_GRADE NEWDELHI_WIND NEWDELHI_PRES NEWDELHI_CI NEWDELHI_DP NEWDELHI_POCI REUNION_LAT REUNION_LON REUNION_TYPE REUNION_WIND REUNION_PRES REUNION_TNUM REUNION_CI REUNION_RMW REUNION_R34_NE REUNION_R34_SE REUNION_R34_SW REUNION_R34_NW REUNION_R50_NE REUNION_R50_SE REUNION_R50_SW REUNION_R50_NW REUNION_R64_NE REUNION_R64_SE REUNION_R64_SW REUNION_R64_NW BOM_LAT BOM_LON BOM_TYPE BOM_WIND BOM_PRES BOM_TNUM BOM_CI BOM_RMW BOM_R34_NE BOM_R34_SE BOM_R34_SW BOM_R34_NW BOM_R50_NE BOM_R50_SE BOM_R50_SW BOM_R50_NW BOM_R64_NE BOM_R64_SE BOM_R64_SW BOM_R64_NW BOM_ROCI BOM_POCI BOM_EYE BOM_POS_METHOD BOM_PRES_METHOD NADI_LAT NADI_LON NADI_CAT NADI_WIND NADI_PRES WELLINGTON_LAT WELLINGTON_LON WELLINGTON_WIND WELLINGTON_PRES DS824_LAT DS824_LON DS824_STAGE DS824_WIND DS824_PRES TD9636_LAT TD9636_LON TD9636_STAGE TD9636_WIND TD9636_PRES TD9635_LAT TD9635_LON TD9635_WIND TD9635_PRES TD9635_ROCI NEUMANN_LAT NEUMANN_LON NEUMANN_CLASS NEUMANN_WIND NEUMANN_PRES MLC_LAT MLC_LON MLC_CLASS MLC_WIND MLC_PRES USA_GUST BOM_GUST BOM_GUST_PER REUNION_GUST REUNION_GUST_PER USA_SEAHGT USA_SEARAD_NE USA_SEARAD_SE USA_SEARAD_SW USA_SEARAD_NW STORM_SPEED STORM_DIR
1906165N23284 1906 19 NA NA NOT_NAMED 1906-06-14 06:00:00 TS 22.9000 -76.4000 35 hurdat_atl main 152 134 O_____________ hurdat_atl AL021906 22.9000 -76.4000 TS 35 0 11 275
1906165N23284 1906 19 NA NA NOT_NAMED 1906-06-14 09:00:00 TS 22.9482 -76.9924 main 134 121 P_____________ AL021906 22.9482 -76.9924 TS 35 0 10 276
1906165N23284 1906 19 NA NA NOT_NAMED 1906-06-14 12:00:00 TS 23.0000 -77.5000 35 hurdat_atl main 121 99 O_____________ hurdat_atl AL021906 23.0000 -77.5000 TS 35 0 8 278
1906165N23284 1906 19 NA NA NOT_NAMED 1906-06-14 15:00:00 TS 23.0571 -77.8725 main 103 91 P_____________ AL021906 23.0571 -77.8725 TS 35 0 7 279
1906165N23284 1906 19 NA NA NOT_NAMED 1906-06-14 18:00:00 TS 23.1000 -78.2000 35 hurdat_atl main 91 89 O_____________ hurdat_atl AL021906 23.1000 -78.2000 TS 35 0 7 274
1906165N23284 1906 19 NA NA NOT_NAMED 1906-06-14 21:00:00 TS 23.1000 -78.5926 main 89 75 P_____________ AL021906 23.1000 -78.5926 TS 35 0 7 270
1906165N23284 1906 19 NA NA NOT_NAMED 1906-06-15 00:00:00 TS 23.1000 -79.0000 35 hurdat_atl main 75 49 O_____________ hurdat_atl AL021906 23.1000 -79.0000 TS 35 0 8 273
1906165N23284 1906 19 NA NA NOT_NAMED 1906-06-15 03:00:00 TS 23.1425 -79.4075 main 49 39 P_____________ AL021906 23.1425 -79.4075 TS 37 0 7 278
1906165N23284 1906 19 NA NA NOT_NAMED 1906-06-15 06:00:00 TS 23.2000 -79.8000 40 hurdat_atl main 39 33 O_____________ hurdat_atl AL021906 23.2000 -79.8000 TS 40 0 7 279
1906165N23284 1906 19 NA NA NOT_NAMED 1906-06-15 09:00:00 TS 23.2575 -80.1875 main 44 33 P_____________ AL021906 23.2575 -80.1875 TS 40 0 7 279
1906165N23284 1906 19 NA NA NOT_NAMED 1906-06-15 12:00:00 TS 23.3000 -80.5000 40 hurdat_atl main 33 33 O_____________ hurdat_atl AL021906 23.3000 -80.5000 TS 40 0 5 276
1906165N23284 1906 19 NA NA NOT_NAMED 1906-06-15 15:00:00 TS 23.3074 -80.6800 main 33 33 P_____________ AL021906 23.3074 -80.6800 TS 42 0 3 270
1906165N23284 1906 19 NA NA NOT_NAMED 1906-06-15 18:00:00 TS 23.3000 -80.8000 45 hurdat_atl main 33 33 O_____________ hurdat_atl AL021906 23.3000 -80.8000 TS 45 0 3 268
1906165N23284 1906 19 NA NA NOT_NAMED 1906-06-15 21:00:00 TS 23.3000 -80.9575 main 33 30 P_____________ AL021906 23.3000 -80.9575 TS 47 0 3 270
1906165N23284 1906 19 NA NA NOT_NAMED 1906-06-16 00:00:00 TS 23.3000 -81.1000 50 hurdat_atl main 30 24 O_____________ hurdat_atl AL021906 23.3000 -81.1000 TS 50 0 2 266
1906165N23284 1906 19 NA NA NOT_NAMED 1906-06-16 03:00:00 TS 23.2850 -81.2075 main 24 22 P_____________ AL021906 23.2850 -81.2075 TS 52 0 2 270
1906165N23284 1906 19 NA NA NOT_NAMED 1906-06-16 06:00:00 TS 23.3000 -81.3000 55 hurdat_atl main 22 22 O_____________ hurdat_atl AL021906 23.3000 -81.3000 TS 55 0 2 292
1906165N23284 1906 19 NA NA NOT_NAMED 1906-06-16 09:00:00 TS 23.3625 -81.4150 main 35 35 P_____________ AL021906 23.3625 -81.4150 TS 57 0 3 317
1906165N23284 1906 19 NA NA NOT_NAMED 1906-06-16 12:00:00 TS 23.5000 -81.5000 60 hurdat_atl main 45 45 O_____________ hurdat_atl AL021906 23.5000 -81.5000 TS 60 0 4 344
1906165N23284 1906 19 NA NA NOT_NAMED 1906-06-16 15:00:00 TS 23.7275 -81.5300 main 67 67 P_____________ AL021906 23.7275 -81.5300 TS 62 0 5 2
1906165N23284 1906 19 NA NA NOT_NAMED 1906-06-16 18:00:00 TS 24.0000 -81.5000 65 hurdat_atl main 101 101 O_____________ hurdat_atl AL021906 24.0000 -81.5000 HU 65 1 5 9
1906165N23284 1906 19 NA NA NOT_NAMED 1906-06-16 21:00:00 TS 24.2602 -81.4341 main 94 70 P_____________ AL021906 24.2602 -81.4341 HU 67 1 5 20
1906165N23284 1906 19 NA NA NOT_NAMED 1906-06-17 00:00:00 TS 24.5000 -81.3000 70 hurdat_atl main 70 44 O_____________ hurdat_atl AL021906 24.5000 -81.3000 HU 70 1 5 35
1906165N23284 1906 19 NA NA NOT_NAMED 1906-06-17 03:00:00 TS 24.7000 -81.1000 70 hurdat_atl main 44 22 O_____________ hurdat_atl AL021906 24.7000 -81.1000 L HU 70 1 6 36
1906165N23284 1906 19 NA GM NOT_NAMED 1906-06-17 06:00:00 TS 25.0000 -80.9000 75 979 hurdat_atl main 22 0 O_____________ hurdat_atl AL021906 25.0000 -80.9000 HU 75 979 1 7 36
1906165N23284 1906 19 NA GM NOT_NAMED 1906-06-17 08:00:00 TS 25.2000 -80.7000 75 979 hurdat_atl main 0 0 O_____________ hurdat_atl AL021906 25.2000 -80.7000 L HU 75 979 1 8 40
1906165N23284 1906 19 NA NA NOT_NAMED 1906-06-17 09:00:00 TS 25.3104 -80.6123 main 0 0 P_____________ AL021906 25.3104 -80.6123 HU 75 1 9 36
1906165N23284 1906 19 NA NA NOT_NAMED 1906-06-17 12:00:00 TS 25.7000 -80.3000 75 hurdat_atl main 0 0 O_____________ hurdat_atl AL021906 25.7000 -80.3000 HU 75 1 12 44
1906165N23284 1906 19 NA NA NOT_NAMED 1906-06-17 15:00:00 TS 26.1489 -79.7276 main 39 39 P_____________ AL021906 26.1489 -79.7276 HU 75 1 15 49
1906165N23284 1906 19 NA NA NOT_NAMED 1906-06-17 18:00:00 TS 26.7000 -79.0000 75 hurdat_atl main 99 99 O_____________ hurdat_atl AL021906 26.7000 -79.0000 HU 75 1 18 47
1906165N23284 1906 19 NA NA NOT_NAMED 1906-06-17 21:00:00 TS 27.3700 -78.2575 main 180 180 P_____________ AL021906 27.3700 -78.2575 HU 77 1 19 44
1906165N23284 1906 19 NA NA NOT_NAMED 1906-06-18 00:00:00 TS 28.1000 -77.5000 80 hurdat_atl main 283 283 O_____________ hurdat_atl AL021906 28.1000 -77.5000 HU 80 1 19 42
1906165N23284 1906 19 NA NA NOT_NAMED 1906-06-18 03:00:00 TS 28.7920 -76.7913 main 362 362 P_____________ AL021906 28.7920 -76.7913 HU 80 1 19 41
1906165N23284 1906 19 NA NA NOT_NAMED 1906-06-18 06:00:00 TS 29.5000 -76.1000 80 hurdat_atl main 441 441 O_____________ hurdat_atl AL021906 29.5000 -76.1000 HU 80 1 19 40
1906165N23284 1906 19 NA NA NOT_NAMED 1906-06-18 09:00:00 TS 30.2497 -75.3919 main 479 445 P_____________ AL021906 30.2497 -75.3919 HU 82 1 19 39
1906165N23284 1906 19 NA NA NOT_NAMED 1906-06-18 12:00:00 TS 31.0000 -74.7000 85 hurdat_atl main 445 401 O_____________ hurdat_atl AL021906 31.0000 -74.7000 HU 85 2 19 39
1906165N23284 1906 19 NA NA NOT_NAMED 1906-06-18 15:00:00 TS 31.7072 -74.0266 main 407 384 P_____________ AL021906 31.7072 -74.0266 HU 85 2 18 38
1906165N23284 1906 19 NA NA NOT_NAMED 1906-06-18 18:00:00 TS 32.4000 -73.4000 85 hurdat_atl main 384 370 O_____________ hurdat_atl AL021906 32.4000 -73.4000 HU 85 2 17 36
1906165N23284 1906 19 NA NA NOT_NAMED 1906-06-18 21:00:00 TS 33.1070 -72.8339 main 379 366 P_____________ AL021906 33.1070 -72.8339 HU 87 2 17 33
1906165N23284 1906 19 NA NA NOT_NAMED 1906-06-19 00:00:00 TS 33.8000 -72.3000 90 hurdat_atl main 366 361 O_____________ hurdat_atl AL021906 33.8000 -72.3000 HU 90 2 16 33
1906165N23284 1906 19 NA NA NOT_NAMED 1906-06-19 03:00:00 TS 34.4640 -71.7931 main 365 365 P_____________ AL021906 34.4640 -71.7931 HU 90 2 16 35
1906165N23284 1906 19 NA NA NOT_NAMED 1906-06-19 06:00:00 TS 35.1000 -71.2000 90 hurdat_atl main 396 396 O_____________ hurdat_atl AL021906 35.1000 -71.2000 HU 90 2 18 42
1906165N23284 1906 19 NA NA NOT_NAMED 1906-06-19 09:00:00 TS 35.7683 -70.3669 main 458 458 P_____________ AL021906 35.7683 -70.3669 HU 90 2 18 49
1906165N23284 1906 19 NA NA NOT_NAMED 1906-06-19 12:00:00 TS 36.3000 -69.5000 90 hurdat_atl main 540 540 O_____________ hurdat_atl AL021906 36.3000 -69.5000 HU 90 2 15 57
1906165N23284 1906 19 NA NA NOT_NAMED 1906-06-19 15:00:00 TS 36.5969 -68.7961 main 569 564 P_____________ AL021906 36.5969 -68.7961 HU 87 2 11 69
1906165N23284 1906 19 NA NA NOT_NAMED 1906-06-19 18:00:00 TS 36.7000 -68.2000 85 hurdat_atl main 575 575 O_____________ hurdat_atl AL021906 36.7000 -68.2000 HU 85 2 9 83
1906165N23284 1906 19 NA NA NOT_NAMED 1906-06-19 21:00:00 TS 36.7018 -67.6921 main 590 590 P_____________ AL021906 36.7018 -67.6921 HU 82 1 8 97
1906165N23284 1906 19 NA NA NOT_NAMED 1906-06-20 00:00:00 TS 36.6000 -67.2000 80 hurdat_atl main 616 616 O_____________ hurdat_atl AL021906 36.6000 -67.2000 HU 80 1 9 105
1906165N23284 1906 19 NA NA NOT_NAMED 1906-06-20 03:00:00 TS 36.4651 -66.5997 main 648 648 P_____________ AL021906 36.4651 -66.5997 HU 77 1 10 107
1906165N23284 1906 19 NA NA NOT_NAMED 1906-06-20 06:00:00 TS 36.3000 -66.0000 75 hurdat_atl main 692 692 O_____________ hurdat_atl AL021906 36.3000 -66.0000 HU 75 1 10 109
1906165N23284 1906 19 NA NA NOT_NAMED 1906-06-20 09:00:00 TS 36.1500 -65.4400 main 729 729 P_____________ AL021906 36.1500 -65.4400 HU 70 1 9 110
1906165N23284 1906 19 NA NA NOT_NAMED 1906-06-20 12:00:00 TS 36.0000 -65.0000 65 hurdat_atl main 767 767 O_____________ hurdat_atl AL021906 36.0000 -65.0000 HU 65 1 6 119
1906165N23284 1906 19 NA NA NOT_NAMED 1906-06-20 15:00:00 TS 35.8496 -64.7629 main 795 795 P_____________ AL021906 35.8496 -64.7629 HU 65 1 4 133
1906165N23284 1906 19 NA NA NOT_NAMED 1906-06-20 18:00:00 TS 35.7000 -64.6000 65 hurdat_atl main 814 814 O_____________ hurdat_atl AL021906 35.7000 -64.6000 HU 65 1 4 132
1906165N23284 1906 19 NA NA NOT_NAMED 1906-06-20 21:00:00 TS 35.5500 -64.3576 main 843 843 P_____________ AL021906 35.5500 -64.3576 HU 60 0 5 126
1906165N23284 1906 19 NA NA NOT_NAMED 1906-06-21 00:00:00 TS 35.4000 -64.1000 55 hurdat_atl main 867 867 O_____________ hurdat_atl AL021906 35.4000 -64.1000 TS 55 0 5 128
1906165N23284 1906 19 NA NA NOT_NAMED 1906-06-21 03:00:00 TS 35.2349 -63.8575 main 896 896 P_____________ AL021906 35.2349 -63.8575 TS 52 0 5 126
1906165N23284 1906 19 NA NA NOT_NAMED 1906-06-21 06:00:00 TS 35.1000 -63.6000 50 hurdat_atl main 920 920 O_____________ hurdat_atl AL021906 35.1000 -63.6000 TS 50 0 5 117
1906165N23284 1906 19 NA NA NOT_NAMED 1906-06-21 09:00:00 TS 35.0124 -63.3149 main 945 945 P_____________ AL021906 35.0124 -63.3149 TS 47 0 5 102
1906165N23284 1906 19 NA NA NOT_NAMED 1906-06-21 12:00:00 TS 35.0000 -63.0000 45 hurdat_atl main 962 961 O_____________ hurdat_atl AL021906 35.0000 -63.0000 TS 45 0 5 85
1906165N23284 1906 19 NA NA NOT_NAMED 1906-06-21 15:00:00 TS 35.0625 -62.6575 main 961 956 P_____________ AL021906 35.0625 -62.6575 TS 45 0 6 71
1906165N23284 1906 19 NA NA NOT_NAMED 1906-06-21 18:00:00 TS 35.2000 -62.3000 45 hurdat_atl main 958 944 O_____________ hurdat_atl AL021906 35.2000 -62.3000 TS 45 0 7 59
1906165N23284 1906 19 NA NA NOT_NAMED 1906-06-21 21:00:00 TS 35.3998 -61.9577 main 944 931 P_____________ AL021906 35.3998 -61.9577 TS 45 0 7 55
1906165N23284 1906 19 NA NA NOT_NAMED 1906-06-22 00:00:00 TS 35.6000 -61.6000 45 hurdat_atl main 934 926 O_____________ hurdat_atl AL021906 35.6000 -61.6000 TS 45 0 7 63
1906165N23284 1906 19 NA NA NOT_NAMED 1906-06-22 03:00:00 TS 35.7149 -61.2072 main 935 931 P_____________ AL021906 35.7149 -61.2072 TS 42 0 7 73
1906165N23284 1906 19 NA NA NOT_NAMED 1906-06-22 06:00:00 TS 35.8000 -60.8000 40 hurdat_atl main 938 935 O_____________ hurdat_atl AL021906 35.8000 -60.8000 TS 40 0 7 75
1906165N23284 1906 19 NA NA NOT_NAMED 1906-06-22 09:00:00 TS 35.8922 -60.4147 main 943 940 P_____________ AL021906 35.8922 -60.4147 TS 40 0 7 73
1906165N23284 1906 19 NA NA NOT_NAMED 1906-06-22 12:00:00 TS 36.0000 -60.0000 40 hurdat_atl main 948 946 O_____________ hurdat_atl AL021906 36.0000 -60.0000 TS 40 0 8 70
1906165N23284 1906 19 NA NA NOT_NAMED 1906-06-22 15:00:00 TS 36.1498 -59.5301 main 959 950 P_____________ AL021906 36.1498 -59.5301 TS 40 0 9 70
1906165N23284 1906 19 NA NA NOT_NAMED 1906-06-22 18:00:00 TS 36.3000 -59.0000 40 hurdat_atl main 963 963 O_____________ hurdat_atl AL021906 36.3000 -59.0000 TS 40 0 9 74
1906165N23284 1906 19 NA NA NOT_NAMED 1906-06-22 21:00:00 TS 36.3998 -58.4220 main 983 983 P_____________ AL021906 36.3998 -58.4220 TS 37 0 10 78
1906165N23284 1906 19 NA NA NOT_NAMED 1906-06-23 00:00:00 TS 36.5000 -57.8000 35 hurdat_atl main 1004 1000 O_____________ hurdat_atl AL021906 36.5000 -57.8000 TS 35 0 10 76
1906165N23284 1906 19 NA NA NOT_NAMED 1906-06-23 03:00:00 TS 36.6496 -57.1651 main 1010 1002 P_____________ AL021906 36.6496 -57.1651 TS 35 0 11 74
1906165N23284 1906 19 NA NA NOT_NAMED 1906-06-23 06:00:00 TS 36.8000 -56.5000 35 hurdat_atl main 1010 1009 O_____________ hurdat_atl AL021906 36.8000 -56.5000 TS 35 0 11 77
1906165N23284 1906 19 NA NA NOT_NAMED 1906-06-23 09:00:00 TS 36.8986 -55.8591 main 1020 1020 P_____________ AL021906 36.8986 -55.8591 TS 35 0 11 80
1906165N23284 1906 19 NA NA NOT_NAMED 1906-06-23 12:00:00 TS 37.0000 -55.1000 35 hurdat_atl main 1040 1040 O_____________ hurdat_atl AL021906 37.0000 -55.1000 TS 35 0 14 80
1906165N23284 1906 19 NA NA NOT_NAMED 1906-06-23 15:00:00 TS 37.1404 -54.1190 main 1057 1034 P_____________ AL021906 37.1404 -54.1190 TS 32 -1 17 80
1906165N23284 1906 19 NA NA NOT_NAMED 1906-06-23 18:00:00 ET 37.3000 -53.0000 30 hurdat_atl main 1034 O_____________ hurdat_atl AL021906 37.3000 -53.0000 EX 30 -4 18 80

IBTrACS Databaseについて

本データベースは、米国NOAAが公開する1842年以降の世界の熱帯低気圧のベストトラックデータアーカイブInternational Best Track Archive for Climate Stewardship (IBTrACS)を、ウェブで閲覧しやすい形式に変換したものです。

最終更新日:2021-11-26